Time;durP1;ratioP1;P1;durP2;ratioP2;P2;SDS_P1;SDS_P2;PMS_P1;PMS_P2;Temp;Humidity;BMP_temperature;BMP_pressure;BME280_temperature;BME280_humidity;BME280_pressure;Samples;Min_cycle;Max_cycle;Signal;HPM_P1;HPM_P2
2024/01/22 00:00:16;;;;;;;8.00;7.90;;;7.50;99.90;;;;;;5044618;28;20460;-71
2024/01/22 00:02:43;;;;;;;7.23;7.13;;;7.60;99.90;;;;;;5039611;28;20472;-74
2024/01/22 00:05:10;;;;;;;6.93;6.83;;;7.60;99.90;;;;;;5041736;28;20463;-74
2024/01/22 00:07:38;;;;;;;7.87;7.77;;;7.60;99.90;;;;;;5044713;28;20476;-71
2024/01/22 00:10:06;;;;;;;8.00;7.90;;;7.60;99.90;;;;;;5039220;28;20480;-72
2024/01/22 00:12:33;;;;;;;7.77;7.67;;;7.60;99.90;;;;;;5040675;28;20467;-71
2024/01/22 00:15:05;;;;;;;8.17;8.07;;;7.70;99.90;;;;;;5045783;28;20457;-75
2024/01/22 00:17:32;;;;;;;7.90;7.80;;;7.70;99.90;;;;;;5042147;28;20468;-73
2024/01/22 00:19:59;;;;;;;8.30;8.20;;;7.70;99.90;;;;;;5046037;28;20461;-72
2024/01/22 00:22:26;;;;;;;8.13;8.03;;;7.70;99.90;;;;;;5042738;28;20497;-72
2024/01/22 00:24:53;;;;;;;8.20;8.10;;;7.80;99.90;;;;;;5039638;28;20465;-71
2024/01/22 00:27:20;;;;;;;8.40;8.30;;;7.80;99.90;;;;;;5046208;28;20872;-74
2024/01/22 00:29:47;;;;;;;8.30;8.20;;;7.80;99.90;;;;;;5043741;28;20457;-75
2024/01/22 00:32:15;;;;;;;8.30;8.20;;;7.90;99.90;;;;;;5039936;28;20457;-72
2024/01/22 00:34:42;;;;;;;8.30;8.20;;;7.90;99.90;;;;;;5039055;28;20881;-74
2024/01/22 00:37:10;;;;;;;8.13;8.03;;;7.90;99.90;;;;;;5041455;28;20459;-72
2024/01/22 00:39:37;;;;;;;8.50;8.40;;;8.00;99.90;;;;;;5042658;28;20549;-72
2024/01/22 00:42:04;;;;;;;8.17;8.07;;;8.00;99.90;;;;;;5042849;28;20483;-71
2024/01/22 00:44:31;;;;;;;8.10;8.00;;;8.00;99.90;;;;;;5044345;28;20461;-72
2024/01/22 00:46:58;;;;;;;8.57;8.47;;;8.00;99.90;;;;;;5047736;28;20492;-74
2024/01/22 00:49:26;;;;;;;8.40;8.30;;;8.10;99.90;;;;;;5037401;28;20481;-71
2024/01/22 00:51:53;;;;;;;8.70;8.60;;;8.10;99.90;;;;;;5046749;28;20472;-73
2024/01/22 00:54:20;;;;;;;8.40;8.30;;;8.10;99.90;;;;;;5047396;28;20463;-73
2024/01/22 00:56:47;;;;;;;8.63;8.53;;;8.10;99.90;;;;;;5050372;28;20471;-71
2024/01/22 00:59:29;;;;;;;9.03;8.83;;;8.10;99.90;;;;;;5046575;28;20477;-72
2024/01/22 01:01:56;;;;;;;8.67;8.57;;;8.10;99.90;;;;;;5042674;28;20565;-71
2024/01/22 01:04:23;;;;;;;9.20;9.00;;;8.20;99.90;;;;;;5043430;28;20551;-74
2024/01/22 01:06:52;;;;;;;9.17;8.97;;;8.20;99.90;;;;;;5048517;28;20483;-75
2024/01/22 01:09:19;;;;;;;9.40;9.20;;;8.20;99.90;;;;;;5041778;28;20460;-72
2024/01/22 01:11:46;;;;;;;8.77;8.63;;;8.20;99.90;;;;;;5046750;28;20487;-73
2024/01/22 01:14:12;;;;;;;8.97;8.77;;;8.20;99.90;;;;;;5048745;28;20456;-71
2024/01/22 01:16:39;;;;;;;9.37;9.17;;;8.20;99.90;;;;;;5045903;28;20471;-73
2024/01/22 01:19:06;;;;;;;8.30;8.20;;;8.30;99.90;;;;;;5040783;28;20466;-73
2024/01/22 01:21:33;;;;;;;9.13;8.93;;;8.30;99.90;;;;;;5046876;28;20475;-73
2024/01/22 01:24:02;;;;;;;9.07;8.87;;;8.20;99.90;;;;;;5039192;28;20713;-74
2024/01/22 01:26:29;;;;;;;9.13;8.93;;;8.30;99.90;;;;;;5046123;28;20832;-72
2024/01/22 01:28:56;;;;;;;9.67;9.47;;;8.30;99.90;;;;;;5040390;28;20480;-72
2024/01/22 01:31:28;;;;;;;9.43;9.23;;;8.40;99.90;;;;;;5047791;28;20795;-72
2024/01/22 01:33:55;;;;;;;9.13;8.93;;;8.40;99.90;;;;;;5044678;28;20464;-71
2024/01/22 01:36:21;;;;;;;10.07;9.87;;;8.50;99.90;;;;;;5046260;28;20463;-73
2024/01/22 01:38:48;;;;;;;9.80;9.60;;;8.50;99.90;;;;;;5040357;28;20468;-73
2024/01/22 01:41:16;;;;;;;10.10;9.90;;;8.50;99.90;;;;;;5043486;28;20452;-72
2024/01/22 01:43:44;;;;;;;10.20;10.00;;;8.60;99.90;;;;;;5045742;28;20461;-73
2024/01/22 01:46:11;;;;;;;10.30;10.10;;;8.60;99.90;;;;;;5045464;28;20491;-73
2024/01/22 01:48:38;;;;;;;9.93;9.73;;;8.60;99.90;;;;;;5040836;28;20464;-73
2024/01/22 01:51:06;;;;;;;9.90;9.70;;;8.70;99.90;;;;;;5046708;28;21013;-71
2024/01/22 01:53:33;;;;;;;10.17;9.97;;;8.70;99.90;;;;;;5040838;28;20452;-73
2024/01/22 01:56:02;;;;;;;10.40;10.20;;;8.70;99.90;;;;;;5047561;28;20526;-70
2024/01/22 01:58:30;;;;;;;10.67;10.47;;;8.80;99.90;;;;;;5044540;28;21050;-72
2024/01/22 02:00:58;;;;;;;10.20;10.00;;;8.90;99.90;;;;;;5046712;28;20471;-73
2024/01/22 02:03:25;;;;;;;11.00;10.70;;;8.90;99.90;;;;;;5042262;28;20475;-71
2024/01/22 02:05:51;;;;;;;10.90;10.60;;;8.90;99.90;;;;;;5043710;28;20480;-73
2024/01/22 02:08:18;;;;;;;10.97;10.67;;;8.90;99.90;;;;;;5043022;28;20475;-70
2024/01/22 02:10:48;;;;;;;10.43;10.23;;;9.00;99.90;;;;;;5047632;28;20475;-73
2024/01/22 02:13:14;;;;;;;10.93;10.63;;;9.00;99.90;;;;;;5044805;28;20518;-71
2024/01/22 02:15:43;;;;;;;11.00;10.70;;;9.00;99.90;;;;;;5046314;28;20959;-74
2024/01/22 02:18:10;;;;;;;10.80;10.50;;;9.00;99.90;;;;;;5046898;28;20461;-71
2024/01/22 02:20:37;;;;;;;10.67;10.47;;;9.10;99.90;;;;;;5039296;28;20465;-72
2024/01/22 02:23:06;;;;;;;10.43;10.23;;;9.10;99.90;;;;;;5046461;28;20469;-73
2024/01/22 02:25:34;;;;;;;10.80;10.50;;;9.20;99.90;;;;;;5044367;28;21207;-71
2024/01/22 02:28:02;;;;;;;11.03;10.73;;;9.20;99.90;;;;;;5044150;28;20497;-72
2024/01/22 02:30:28;;;;;;;11.20;10.90;;;9.30;99.90;;;;;;5046893;28;20475;-71
2024/01/22 02:32:56;;;;;;;10.97;10.67;;;9.30;99.90;;;;;;5043615;28;20466;-73
2024/01/22 02:35:23;;;;;;;11.27;10.97;;;9.50;99.90;;;;;;5047001;28;20505;-71
2024/01/22 02:37:50;;;;;;;11.37;11.07;;;9.60;99.90;;;;;;5046715;28;20477;-71
2024/01/22 02:40:18;;;;;;;11.30;11.00;;;9.70;99.90;;;;;;5047342;28;20461;-71
2024/01/22 02:42:45;;;;;;;11.47;11.17;;;9.70;99.90;;;;;;5041590;28;20468;-72
2024/01/22 02:45:12;;;;;;;11.47;11.17;;;9.70;99.90;;;;;;5046484;28;20862;-71
2024/01/22 02:47:39;;;;;;;10.60;10.40;;;9.60;99.90;;;;;;5034156;28;20502;-72
2024/01/22 02:50:07;;;;;;;10.50;10.30;;;9.70;99.90;;;;;;5045124;28;20490;-72
2024/01/22 02:52:34;;;;;;;10.67;10.47;;;9.60;99.90;;;;;;5041334;28;20472;-72
2024/01/22 02:55:02;;;;;;;10.43;10.23;;;9.70;99.90;;;;;;5041279;28;20520;-72
2024/01/22 02:57:30;;;;;;;10.10;9.90;;;9.70;99.90;;;;;;5045434;28;20833;-72
2024/01/22 02:59:57;;;;;;;10.50;10.30;;;9.80;99.90;;;;;;5043202;28;20465;-71
2024/01/22 03:02:24;;;;;;;10.63;10.43;;;9.90;99.90;;;;;;5043092;28;20839;-71
2024/01/22 03:04:51;;;;;;;10.40;10.20;;;9.90;99.90;;;;;;5031783;28;20491;-72
2024/01/22 03:07:17;;;;;;;10.93;10.63;;;9.90;99.90;;;;;;5047689;28;20496;-72
2024/01/22 03:09:45;;;;;;;10.60;10.40;;;10.00;99.90;;;;;;5044003;28;20895;-71
2024/01/22 03:12:12;;;;;;;10.70;10.50;;;10.00;99.90;;;;;;5044501;28;20468;-72
2024/01/22 03:14:40;;;;;;;10.27;10.07;;;10.10;99.90;;;;;;5047589;28;20469;-73
2024/01/22 03:17:08;;;;;;;10.33;10.13;;;10.20;99.90;;;;;;5035750;28;20462;-73
2024/01/22 03:19:34;;;;;;;10.37;10.17;;;10.20;99.90;;;;;;5046412;28;21030;-72
2024/01/22 03:22:01;;;;;;;10.30;10.10;;;10.20;99.90;;;;;;5043434;28;20472;-72
2024/01/22 03:24:29;;;;;;;10.20;10.00;;;10.20;99.90;;;;;;5040421;28;20476;-70
2024/01/22 03:26:55;;;;;;;10.00;9.80;;;10.20;99.90;;;;;;5047607;28;20608;-72
2024/01/22 03:29:22;;;;;;;12.47;12.07;;;10.30;99.90;;;;;;5045361;28;20468;-70
2024/01/22 03:31:53;;;;;;;21.13;19.73;;;10.30;99.90;;;;;;5043746;28;20464;-72
2024/01/22 03:34:20;;;;;;;19.07;17.87;;;10.10;99.90;;;;;;5047654;28;20964;-73
2024/01/22 03:36:47;;;;;;;19.30;18.00;;;9.80;99.90;;;;;;5043904;28;20496;-75
2024/01/22 03:39:14;;;;;;;18.40;17.20;;;9.80;99.90;;;;;;5042287;28;20479;-72
2024/01/22 03:41:42;;;;;;;17.83;16.73;;;9.70;99.90;;;;;;5044416;28;20469;-74
2024/01/22 03:44:09;;;;;;;17.83;16.77;;;9.60;99.90;;;;;;5038082;28;20461;-75
2024/01/22 03:46:36;;;;;;;17.03;16.03;;;9.50;99.90;;;;;;5039415;28;20492;-71
2024/01/22 03:49:05;;;;;;;17.43;16.43;;;9.50;99.90;;;;;;5042433;28;20982;-74
2024/01/22 03:51:31;;;;;;;17.47;16.47;;;9.40;99.90;;;;;;5049597;28;20873;-74
2024/01/22 03:53:58;;;;;;;17.10;16.10;;;9.50;99.90;;;;;;5051686;28;20456;-73
2024/01/22 03:56:25;;;;;;;16.97;16.07;;;9.50;99.90;;;;;;5050776;28;20453;-72
2024/01/22 03:58:52;;;;;;;17.23;16.27;;;9.40;99.90;;;;;;5051503;28;20815;-72
2024/01/22 04:01:21;;;;;;;17.20;16.30;;;9.50;99.90;;;;;;5050090;28;20507;-72
2024/01/22 04:03:48;;;;;;;16.73;15.83;;;9.50;99.90;;;;;;5051522;28;20499;-71
2024/01/22 04:06:18;;;;;;;16.60;15.70;;;9.50;99.90;;;;;;5049662;28;20809;-72
2024/01/22 04:08:45;;;;;;;16.80;15.90;;;9.50;99.90;;;;;;5051319;28;20448;-72
2024/01/22 04:11:12;;;;;;;17.07;16.17;;;9.50;99.90;;;;;;5051011;28;20457;-72
2024/01/22 04:13:39;;;;;;;16.87;15.97;;;9.50;99.90;;;;;;5050244;28;20815;-72
2024/01/22 04:16:07;;;;;;;16.77;15.87;;;9.50;99.90;;;;;;5049463;28;20485;-71
2024/01/22 04:18:34;;;;;;;16.70;15.80;;;9.50;99.90;;;;;;5048629;28;20463;-71
2024/01/22 04:21:01;;;;;;;16.73;15.83;;;9.50;99.90;;;;;;5050435;28;20953;-71
2024/01/22 04:23:30;;;;;;;16.07;15.27;;;9.50;99.90;;;;;;5050876;28;20456;-72
2024/01/22 04:25:58;;;;;;;16.07;15.27;;;9.50;99.90;;;;;;5050578;28;20494;-72
2024/01/22 04:28:24;;;;;;;15.83;15.13;;;9.60;99.90;;;;;;5050862;28;20489;-72
2024/01/22 04:30:52;;;;;;;16.00;15.23;;;9.50;99.90;;;;;;5048795;28;20479;-72
2024/01/22 04:33:19;;;;;;;16.07;15.30;;;9.50;99.90;;;;;;5050843;28;20495;-71
2024/01/22 04:35:46;;;;;;;15.70;15.00;;;9.60;99.90;;;;;;5049565;28;20535;-73
2024/01/22 04:38:14;;;;;;;15.60;14.90;;;9.60;99.90;;;;;;5050889;28;20452;-75
2024/01/22 04:40:42;;;;;;;16.20;15.40;;;9.60;99.90;;;;;;5050965;28;20448;-72
2024/01/22 04:43:09;;;;;;;16.40;15.60;;;9.60;99.90;;;;;;5050471;28;20456;-75
2024/01/22 04:45:36;;;;;;;15.90;15.10;;;9.60;99.90;;;;;;5050798;28;20441;-72
2024/01/22 04:48:04;;;;;;;15.97;15.17;;;9.60;99.90;;;;;;5047595;28;20501;-74
2024/01/22 04:50:31;;;;;;;16.80;15.90;;;9.70;99.90;;;;;;5046890;28;20477;-72
2024/01/22 04:52:58;;;;;;;16.47;15.63;;;9.90;99.90;;;;;;5038766;28;20462;-72
2024/01/22 04:55:25;;;;;;;17.00;16.10;;;9.80;99.90;;;;;;5035459;28;20463;-72
2024/01/22 04:57:54;;;;;;;17.77;16.77;;;9.90;99.90;;;;;;5043903;28;20471;-72
2024/01/22 05:00:22;;;;;;;17.77;16.77;;;10.00;99.90;;;;;;5031962;28;20496;-72
2024/01/22 05:02:48;;;;;;;16.90;16.00;;;10.20;99.90;;;;;;5038088;28;21084;-72
2024/01/22 05:05:15;;;;;;;17.03;16.13;;;10.30;99.90;;;;;;5042750;28;20989;-72
2024/01/22 05:07:43;;;;;;;16.37;15.47;;;10.30;99.90;;;;;;5037741;28;20509;-72
2024/01/22 05:10:10;;;;;;;17.90;16.90;;;10.30;99.90;;;;;;5039353;28;20503;-71
2024/01/22 05:12:37;;;;;;;17.47;16.47;;;10.30;99.90;;;;;;5044004;28;20468;-72
2024/01/22 05:15:06;;;;;;;17.00;16.10;;;10.30;99.90;;;;;;5034222;28;20457;-71
2024/01/22 05:17:34;;;;;;;16.60;15.70;;;10.30;99.90;;;;;;5046336;28;20456;-71
2024/01/22 05:20:02;;;;;;;16.70;15.80;;;10.20;99.90;;;;;;5037196;28;20527;-71
2024/01/22 05:22:28;;;;;;;16.60;15.70;;;10.20;99.90;;;;;;5035136;28;20468;-72
2024/01/22 05:24:55;;;;;;;15.40;14.70;;;10.20;99.90;;;;;;5045523;28;20459;-73
2024/01/22 05:27:22;;;;;;;15.50;14.80;;;10.20;99.90;;;;;;5047108;28;20483;-76
2024/01/22 05:29:50;;;;;;;15.43;14.73;;;10.30;99.90;;;;;;5039356;28;20798;-73
2024/01/22 05:32:18;;;;;;;14.33;13.73;;;10.30;99.90;;;;;;5044698;28;20815;-72
2024/01/22 05:34:45;;;;;;;14.20;13.60;;;10.40;99.90;;;;;;5048113;28;20458;-72
2024/01/22 05:37:12;;;;;;;13.77;13.17;;;10.40;99.90;;;;;;5046876;28;20472;-72
2024/01/22 05:39:39;;;;;;;13.10;12.60;;;10.50;99.90;;;;;;5049172;28;20469;-72
2024/01/22 05:42:06;;;;;;;13.27;12.77;;;10.50;99.90;;;;;;5043763;28;20490;-74
2024/01/22 05:44:33;;;;;;;13.20;12.70;;;10.60;99.90;;;;;;5049831;28;20544;-72
2024/01/22 05:47:01;;;;;;;13.40;12.90;;;10.60;99.90;;;;;;5047261;28;21034;-71
2024/01/22 05:49:29;;;;;;;13.57;13.07;;;10.70;99.90;;;;;;5039024;28;20494;-73
2024/01/22 05:51:56;;;;;;;13.20;12.70;;;10.70;99.90;;;;;;5046065;28;20549;-73
2024/01/22 05:54:23;;;;;;;13.70;13.20;;;10.80;99.90;;;;;;5037857;28;20466;-74
2024/01/22 05:56:50;;;;;;;14.00;13.50;;;10.90;99.90;;;;;;5036540;28;20553;-73
2024/01/22 05:59:17;;;;;;;13.90;13.40;;;10.90;99.90;;;;;;5044851;28;20498;-73
2024/01/22 06:01:44;;;;;;;13.23;12.73;;;10.90;99.90;;;;;;5040682;28;20465;-71
2024/01/22 06:04:11;;;;;;;12.10;11.70;;;11.00;99.90;;;;;;5047852;28;20978;-72
2024/01/22 06:06:40;;;;;;;11.80;11.40;;;11.00;99.90;;;;;;5040251;28;20554;-71
2024/01/22 06:09:08;;;;;;;11.23;10.93;;;11.00;99.90;;;;;;5040295;28;20504;-72
2024/01/22 06:11:35;;;;;;;11.90;11.50;;;11.00;99.90;;;;;;5046219;28;21107;-72
2024/01/22 06:14:03;;;;;;;11.40;11.10;;;11.00;99.90;;;;;;5040361;28;20465;-72
2024/01/22 06:16:30;;;;;;;11.50;11.20;;;11.00;99.90;;;;;;5041340;28;20467;-72
2024/01/22 06:18:57;;;;;;;11.70;11.40;;;11.10;99.90;;;;;;5046086;28;20843;-73
2024/01/22 06:21:23;;;;;;;11.67;11.37;;;11.10;99.90;;;;;;5038632;28;20820;-74
2024/01/22 06:23:52;;;;;;;12.00;11.60;;;11.10;99.90;;;;;;5042230;28;20855;-71
2024/01/22 06:26:19;;;;;;;11.60;11.30;;;11.10;99.90;;;;;;5047498;28;20951;-72
2024/01/22 06:28:47;;;;;;;11.43;11.13;;;11.10;99.90;;;;;;5047194;28;20495;-71
2024/01/22 06:31:14;;;;;;;11.27;10.97;;;11.10;99.90;;;;;;5047497;28;20458;-71
2024/01/22 06:33:41;;;;;;;11.47;11.17;;;11.10;99.90;;;;;;5046531;28;20462;-72
2024/01/22 06:36:08;;;;;;;11.10;10.80;;;11.10;99.90;;;;;;5044657;28;20476;-71
2024/01/22 06:38:36;;;;;;;10.87;10.57;;;11.10;99.90;;;;;;5044082;28;21083;-73
2024/01/22 06:41:10;;;;;;;11.53;11.23;;;11.10;99.90;;;;;;5042112;28;20463;-71
2024/01/22 06:43:37;;;;;;;11.47;11.17;;;11.10;99.90;;;;;;5035393;28;20468;-72
2024/01/22 06:46:04;;;;;;;11.37;11.07;;;11.10;99.90;;;;;;5046022;28;20477;-71
2024/01/22 06:48:31;;;;;;;11.50;11.20;;;11.10;99.90;;;;;;5041082;28;20500;-73
2024/01/22 06:50:59;;;;;;;12.07;11.67;;;11.10;99.90;;;;;;5043333;28;20487;-71
2024/01/22 06:53:25;;;;;;;11.77;11.47;;;11.10;99.90;;;;;;5044078;28;20926;-71
2024/01/22 06:55:53;;;;;;;11.87;11.57;;;11.20;99.90;;;;;;5043735;28;20473;-70
2024/01/22 06:58:22;;;;;;;11.90;11.60;;;11.30;99.90;;;;;;5031393;28;20477;-73
2024/01/22 07:00:51;;;;;;;11.97;11.67;;;11.30;99.90;;;;;;5040364;28;20555;-70
2024/01/22 07:03:17;;;;;;;11.67;11.37;;;11.30;99.90;;;;;;5046766;28;20469;-71
2024/01/22 07:05:45;;;;;;;12.37;11.97;;;11.30;99.90;;;;;;5035185;28;20462;-70
2024/01/22 07:08:12;;;;;;;12.17;11.77;;;11.40;99.90;;;;;;5037866;28;20503;-71
2024/01/22 07:10:40;;;;;;;11.73;11.43;;;11.40;99.90;;;;;;5043395;28;20802;-73
2024/01/22 07:13:07;;;;;;;11.90;11.60;;;11.40;99.90;;;;;;5043611;28;20459;-72
2024/01/22 07:15:35;;;;;;;12.10;11.70;;;11.40;99.90;;;;;;5038676;28;20460;-72
2024/01/22 07:18:02;;;;;;;11.33;11.03;;;11.40;99.90;;;;;;5036557;28;20461;-72
2024/01/22 07:20:29;;;;;;;11.30;11.00;;;11.30;99.90;;;;;;5041859;28;20570;-71
2024/01/22 07:22:56;;;;;;;10.70;10.40;;;11.20;99.90;;;;;;5044621;28;20461;-72
2024/01/22 07:25:24;;;;;;;10.50;10.23;;;11.20;99.90;;;;;;5040646;28;20464;-70
2024/01/22 07:27:51;;;;;;;10.17;9.97;;;11.10;99.90;;;;;;5046492;28;21015;-72
2024/01/22 07:30:19;;;;;;;9.80;9.60;;;11.20;99.90;;;;;;5035189;28;20466;-71
2024/01/22 07:32:47;;;;;;;9.77;9.57;;;11.10;99.90;;;;;;5045580;28;20865;-71
2024/01/22 07:35:15;;;;;;;9.63;9.43;;;11.10;99.90;;;;;;5045935;28;20456;-73
2024/01/22 07:37:44;;;;;;;8.77;8.57;;;11.00;99.90;;;;;;5037709;28;20493;-71
2024/01/22 07:40:12;;;;;;;7.07;6.97;;;10.90;99.90;;;;;;5037040;28;20466;-72
2024/01/22 07:42:40;;;;;;;6.57;6.47;;;10.70;99.90;;;;;;5040959;28;20472;-72
2024/01/22 07:45:10;;;;;;;6.63;6.53;;;10.60;99.90;;;;;;5037928;28;20465;-72
2024/01/22 07:47:38;;;;;;;6.20;6.10;;;10.60;99.90;;;;;;5044712;28;20547;-72
2024/01/22 07:50:10;;;;;;;6.10;6.00;;;10.50;99.90;;;;;;5041634;28;20480;-73
2024/01/22 07:52:37;;;;;;;6.60;6.50;;;10.40;99.90;;;;;;5039339;28;20738;-73
2024/01/22 07:55:05;;;;;;;6.90;6.80;;;10.40;99.90;;;;;;5045085;28;20462;-72
2024/01/22 07:57:32;;;;;;;7.00;6.90;;;10.30;99.90;;;;;;5046499;28;20463;-72
2024/01/22 08:00:00;;;;;;;7.33;7.23;;;10.40;99.90;;;;;;5043772;28;20964;-72
2024/01/22 08:02:27;;;;;;;7.03;6.93;;;10.40;99.90;;;;;;5041683;28;20478;-72
2024/01/22 08:04:54;;;;;;;7.10;7.00;;;10.40;99.90;;;;;;5043553;28;20472;-71
2024/01/22 08:07:23;;;;;;;6.77;6.67;;;10.40;99.90;;;;;;5043503;28;20475;-71
2024/01/22 08:09:50;;;;;;;6.73;6.63;;;10.40;99.90;;;;;;5045767;28;20493;-72
2024/01/22 08:12:17;;;;;;;7.30;7.20;;;10.50;99.90;;;;;;5045089;28;20461;-72
2024/01/22 08:14:45;;;;;;;7.20;7.10;;;10.50;99.90;;;;;;5046304;28;20465;-73
2024/01/22 08:17:12;;;;;;;7.80;7.70;;;10.60;99.90;;;;;;5046122;28;20470;-72
2024/01/22 08:19:39;;;;;;;8.00;7.90;;;10.60;99.90;;;;;;5041881;28;20464;-71
2024/01/22 08:22:06;;;;;;;8.50;8.40;;;10.60;99.90;;;;;;5047010;28;20573;-73
2024/01/22 08:24:35;;;;;;;8.30;8.20;;;10.70;99.90;;;;;;5042866;28;20473;-71
2024/01/22 08:27:02;;;;;;;8.47;8.37;;;10.70;99.90;;;;;;5047756;28;20465;-71
2024/01/22 08:29:30;;;;;;;9.00;8.80;;;10.80;99.90;;;;;;5035558;28;20494;-72
2024/01/22 08:31:57;;;;;;;9.30;9.10;;;10.80;99.90;;;;;;5046690;28;20550;-72
2024/01/22 08:34:24;;;;;;;9.20;9.00;;;10.80;99.90;;;;;;5036325;28;20467;-72
2024/01/22 08:36:52;;;;;;;9.23;9.03;;;10.80;99.90;;;;;;5039704;28;20456;-72
2024/01/22 08:39:19;;;;;;;9.27;9.07;;;10.90;99.90;;;;;;5046933;28;22226;-73
2024/01/22 08:41:48;;;;;;;9.53;9.33;;;10.90;99.90;;;;;;5047454;28;20466;-73
2024/01/22 08:44:15;;;;;;;8.90;8.70;;;11.00;99.90;;;;;;5052790;28;20528;-72
2024/01/22 08:46:42;;;;;;;9.30;9.10;;;11.00;99.90;;;;;;5050479;28;20491;-73
2024/01/22 08:49:09;;;;;;;9.23;9.03;;;11.00;99.90;;;;;;5052511;28;20576;-72
2024/01/22 08:51:36;;;;;;;9.87;9.67;;;11.10;99.90;;;;;;5045955;28;20489;-72
2024/01/22 08:54:04;;;;;;;10.47;10.20;;;11.10;99.90;;;;;;5049220;28;20468;-73
2024/01/22 08:56:30;;;;;;;10.87;10.57;;;11.20;99.90;;;;;;5052406;28;20468;-71
2024/01/22 08:58:59;;;;;;;11.07;10.77;;;11.20;99.90;;;;;;5054297;28;20477;-72
2024/01/22 09:01:25;;;;;;;10.93;10.63;;;11.30;99.90;;;;;;5057365;28;20772;-71
2024/01/22 09:03:52;;;;;;;10.53;10.23;;;11.30;99.90;;;;;;5055376;28;20831;-72
2024/01/22 09:06:19;;;;;;;11.10;10.80;;;11.40;99.90;;;;;;5054190;28;20472;-72
2024/01/22 09:08:45;;;;;;;12.07;11.70;;;11.40;99.90;;;;;;5048486;28;20570;-72
2024/01/22 09:11:13;;;;;;;12.27;11.87;;;11.50;99.90;;;;;;5056684;28;20469;-72
2024/01/22 09:13:39;;;;;;;12.40;12.00;;;11.60;99.90;;;;;;5055011;28;20465;-73
2024/01/22 09:16:10;;;;;;;12.70;12.30;;;11.60;99.90;;;;;;5057816;28;20465;-72
2024/01/22 09:18:37;;;;;;;12.40;12.00;;;11.60;99.90;;;;;;5054216;28;22303;-74
2024/01/22 09:21:04;;;;;;;11.70;11.40;;;11.70;99.90;;;;;;5055802;28;20462;-73
2024/01/22 09:23:31;;;;;;;12.30;11.90;;;11.70;99.90;;;;;;5046855;28;20465;-74
2024/01/22 09:25:58;;;;;;;12.20;11.80;;;11.70;99.90;;;;;;5055771;28;20478;-73
2024/01/22 09:28:30;;;;;;;12.40;12.00;;;11.80;99.90;;;;;;5055501;28;21599;-72
2024/01/22 09:30:58;;;;;;;12.93;12.53;;;11.90;99.90;;;;;;5054168;28;22500;-72
2024/01/22 09:33:28;;;;;;;13.00;12.60;;;12.00;99.90;;;;;;5053661;28;20469;-73
2024/01/22 09:35:55;;;;;;;13.23;12.83;;;12.10;99.90;;;;;;5050703;28;20524;-72
2024/01/22 09:38:22;;;;;;;13.00;12.60;;;12.10;99.90;;;;;;5054688;28;20470;-73
2024/01/22 09:40:50;;;;;;;13.53;13.07;;;12.20;99.90;;;;;;5056147;28;20489;-72
2024/01/22 09:43:18;;;;;;;13.00;12.60;;;12.20;99.90;;;;;;5053424;28;20549;-71
2024/01/22 09:45:47;;;;;;;13.20;12.80;;;12.30;99.90;;;;;;5051253;28;20460;-71
2024/01/22 09:48:15;;;;;;;13.07;12.67;;;12.30;99.90;;;;;;5051527;28;20490;-71
2024/01/22 09:50:44;;;;;;;13.57;13.10;;;12.40;99.90;;;;;;5054555;28;20519;-71
2024/01/22 09:53:11;;;;;;;13.43;13.03;;;12.40;99.90;;;;;;5053864;28;20997;-72
2024/01/22 09:55:40;;;;;;;13.53;13.03;;;12.50;99.90;;;;;;5053122;28;22537;-73
2024/01/22 09:58:08;;;;;;;13.50;13.07;;;12.50;99.90;;;;;;5056045;28;20462;-71
2024/01/22 10:00:36;;;;;;;13.70;13.20;;;12.40;99.90;;;;;;5055234;28;20456;-71
2024/01/22 10:03:03;;;;;;;13.73;13.23;;;12.40;99.90;;;;;;5054912;28;20474;-71
2024/01/22 10:05:30;;;;;;;13.20;12.80;;;12.50;99.90;;;;;;5044182;28;20470;-72
2024/01/22 10:07:58;;;;;;;13.63;13.13;;;12.50;99.90;;;;;;5055195;28;20465;-70
2024/01/22 10:10:25;;;;;;;13.80;13.30;;;12.50;99.90;;;;;;5054036;28;20495;-71
2024/01/22 10:13:03;;;;;;;13.77;13.27;;;12.60;99.90;;;;;;5054210;28;20458;-71
2024/01/22 10:15:31;;;;;;;13.40;12.90;;;12.50;99.90;;;;;;5053228;28;20477;-70
2024/01/22 10:18:11;;;;;;;14.00;13.50;;;12.50;99.90;;;;;;5053701;28;20462;-72
2024/01/22 10:20:39;;;;;;;13.10;12.70;;;12.60;99.90;;;;;;5055219;28;20469;-71
2024/01/22 10:23:07;;;;;;;13.60;13.10;;;12.70;99.90;;;;;;5052909;28;20479;-71
2024/01/22 10:25:34;;;;;;;13.20;12.80;;;12.70;99.90;;;;;;5046542;28;20462;-71
2024/01/22 10:28:16;;;;;;;13.13;12.73;;;12.70;99.90;;;;;;5055636;28;20557;-70
2024/01/22 10:30:44;;;;;;;13.13;12.73;;;12.70;99.90;;;;;;5051750;28;20810;-70
2024/01/22 10:33:15;;;;;;;12.87;12.47;;;12.70;99.90;;;;;;5052119;28;20510;-71
2024/01/22 10:35:44;;;;;;;12.67;12.27;;;12.80;99.90;;;;;;5050385;28;20508;-71
2024/01/22 10:38:16;;;;;;;12.67;12.27;;;12.70;99.90;;;;;;5051730;28;20567;-71
2024/01/22 10:40:46;;;;;;;12.57;12.17;;;12.80;99.90;;;;;;5049337;28;20973;-72
2024/01/22 10:43:20;;;;;;;12.67;12.27;;;12.80;99.90;;;;;;5054590;28;20694;-72
2024/01/22 10:45:47;;;;;;;12.60;12.20;;;12.80;99.90;;;;;;5051916;28;20472;-71
2024/01/22 10:48:16;;;;;;;12.57;12.17;;;12.70;99.90;;;;;;5053347;28;20595;-71
2024/01/22 10:50:44;;;;;;;12.70;12.30;;;12.60;99.90;;;;;;5052455;28;20548;-69
2024/01/22 10:53:12;;;;;;;12.70;12.30;;;12.60;99.90;;;;;;5053011;28;20463;-71
2024/01/22 10:55:39;;;;;;;12.63;12.23;;;12.60;99.90;;;;;;5053750;28;20467;-71
2024/01/22 10:58:15;;;;;;;12.73;12.33;;;12.50;99.90;;;;;;5048332;28;20989;-72
2024/01/22 11:00:44;;;;;;;12.50;12.10;;;12.50;99.90;;;;;;5053672;28;20472;-72
2024/01/22 11:03:13;;;;;;;12.60;12.20;;;12.50;99.90;;;;;;5053713;28;20467;-70
2024/01/22 11:05:42;;;;;;;12.30;11.90;;;12.50;99.90;;;;;;5054529;28;20471;-72
2024/01/22 11:08:13;;;;;;;12.20;11.80;;;12.40;99.90;;;;;;5047480;28;20466;-71
2024/01/22 11:10:42;;;;;;;12.10;11.70;;;12.40;99.90;;;;;;5050174;28;20491;-72
2024/01/22 11:13:10;;;;;;;12.10;11.70;;;12.40;99.90;;;;;;5054078;28;20498;-72
2024/01/22 11:15:37;;;;;;;12.30;11.90;;;12.50;99.90;;;;;;5054223;28;20471;-72
2024/01/22 11:18:04;;;;;;;12.20;11.80;;;12.50;99.90;;;;;;5052250;28;20466;-71
2024/01/22 11:20:32;;;;;;;12.67;12.27;;;12.60;99.90;;;;;;5046194;28;20476;-72
2024/01/22 11:23:01;;;;;;;12.57;12.17;;;12.50;99.90;;;;;;5046514;28;20817;-73
2024/01/22 11:25:30;;;;;;;12.53;12.13;;;12.40;99.90;;;;;;5040435;28;20467;-72
2024/01/22 11:28:02;;;;;;;12.17;11.80;;;12.40;99.90;;;;;;5046212;28;20829;-71
2024/01/22 11:30:32;;;;;;;11.17;10.87;;;12.30;99.90;;;;;;5045419;28;20486;-72
2024/01/22 11:32:59;;;;;;;10.40;10.20;;;12.30;99.90;;;;;;5046422;28;20454;-72
2024/01/22 11:35:37;;;;;;;10.57;10.30;;;12.00;99.90;;;;;;5047049;28;20775;-71
2024/01/22 11:38:04;;;;;;;10.80;10.50;;;11.90;99.90;;;;;;5047403;28;20878;-71
2024/01/22 11:40:49;;;;;;;10.07;9.87;;;11.80;99.90;;;;;;5051196;28;20466;-72
2024/01/22 11:43:17;;;;;;;10.33;10.13;;;11.80;99.90;;;;;;5048953;28;20560;-72
2024/01/22 11:45:45;;;;;;;16.17;15.37;;;11.80;99.90;;;;;;5040071;28;20568;-70
2024/01/22 11:48:18;;;;;;;17.90;16.80;;;11.70;99.90;;;;;;5046878;28;20589;-71
2024/01/22 11:50:58;;;;;;;17.87;16.77;;;11.40;99.90;;;;;;5049766;28;20500;-71
2024/01/22 11:53:26;;;;;;;16.90;16.00;;;10.90;99.90;;;;;;5052091;28;20466;-75
2024/01/22 11:56:04;;;;;;;16.13;15.33;;;10.70;99.90;;;;;;5048347;28;20461;-73
2024/01/22 11:58:32;;;;;;;16.90;16.10;;;10.60;99.90;;;;;;5051436;28;20464;-75
2024/01/22 12:01:01;;;;;;;16.33;15.63;;;10.70;99.90;;;;;;5048795;28;20466;-73
2024/01/22 12:03:30;;;;;;;16.23;15.43;;;10.80;99.90;;;;;;5047986;28;20461;-73
2024/01/22 12:06:00;;;;;;;15.70;15.00;;;11.00;99.90;;;;;;5047985;28;20486;-72
2024/01/22 12:08:28;;;;;;;15.50;14.80;;;11.30;99.90;;;;;;5048796;28;20462;-72
2024/01/22 12:11:08;;;;;;;16.20;15.40;;;11.40;99.90;;;;;;5050167;28;20500;-73
2024/01/22 12:13:36;;;;;;;15.87;15.13;;;11.50;99.90;;;;;;5051221;28;20468;-72
2024/01/22 12:16:04;;;;;;;15.00;14.30;;;11.60;99.90;;;;;;5048373;28;20551;-74
2024/01/22 12:18:31;;;;;;;15.07;14.37;;;11.70;99.90;;;;;;5048835;28;20498;-73
2024/01/22 12:20:58;;;;;;;14.47;13.83;;;11.80;99.90;;;;;;5044069;28;20493;-72
2024/01/22 12:23:30;;;;;;;14.50;13.80;;;11.60;99.90;;;;;;5050624;28;20497;-72
2024/01/22 12:25:57;;;;;;;14.63;13.93;;;11.60;99.90;;;;;;5051431;28;20527;-72
2024/01/22 12:28:27;;;;;;;15.63;14.83;;;11.40;99.90;;;;;;5052775;28;20555;-72
2024/01/22 12:31:00;;;;;;;15.90;15.10;;;11.40;99.90;;;;;;5046135;28;20488;-70
2024/01/22 12:33:28;;;;;;;16.50;15.60;;;11.30;99.90;;;;;;5053424;28;20644;-73
2024/01/22 12:36:10;;;;;;;16.60;15.70;;;11.70;99.90;;;;;;5048049;28;20468;-73
2024/01/22 12:38:48;;;;;;;16.43;15.53;;;12.20;99.90;;;;;;5054484;28;20501;-72